sensor_id;sensor_type;location;lat;lon;timestamp;P1;durP1;ratioP1;P2;durP2;ratioP2
67429;SDS011;54298;52.076;5.264;2023-05-10T00:01:51;63.9;;;53.2;;
67429;SDS011;54298;52.076;5.264;2023-05-10T00:03:27;61.1;;;52.7;;
67429;SDS011;54298;52.076;5.264;2023-05-10T00:05:03;77.3;;;58.3;;
67429;SDS011;54298;52.076;5.264;2023-05-10T00:08:16;74.2;;;59.1;;
67429;SDS011;54298;52.076;5.264;2023-05-10T00:09:52;72.0;;;56.4;;
67429;SDS011;54298;52.076;5.264;2023-05-10T00:11:29;61.7;;;46.2;;
67429;SDS011;54298;52.076;5.264;2023-05-10T00:13:05;76.8;;;61.3;;
67429;SDS011;54298;52.076;5.264;2023-05-10T00:16:17;67.6;;;53.7;;
67429;SDS011;54298;52.076;5.264;2023-05-10T00:17:53;71.3;;;51.4;;
67429;SDS011;54298;52.076;5.264;2023-05-10T00:19:29;70.0;;;53.0;;
67429;SDS011;54298;52.076;5.264;2023-05-10T00:22:41;69.11;;;56.9;;
67429;SDS011;54298;52.076;5.264;2023-05-10T00:24:18;65.8;;;49.7;;
67429;SDS011;54298;52.076;5.264;2023-05-10T00:25:54;74.11;;;55.8;;
67429;SDS011;54298;52.076;5.264;2023-05-10T00:29:06;75.91;;;57.3;;
67429;SDS011;54298;52.076;5.264;2023-05-10T00:30:42;70.3;;;59.5;;
67429;SDS011;54298;52.076;5.264;2023-05-10T00:32:18;68.61;;;53.1;;
67429;SDS011;54298;52.076;5.264;2023-05-10T00:33:54;77.7;;;55.2;;
67429;SDS011;54298;52.076;5.264;2023-05-10T00:37:08;72.5;;;57.9;;
67429;SDS011;54298;52.076;5.264;2023-05-10T00:38:44;71.0;;;60.3;;
67429;SDS011;54298;52.076;5.264;2023-05-10T00:45:08;66.6;;;53.0;;
67429;SDS011;54298;52.076;5.264;2023-05-10T00:46:44;80.41;;;58.4;;
67429;SDS011;54298;52.076;5.264;2023-05-10T00:49:58;71.41;;;57.6;;
67429;SDS011;54298;52.076;5.264;2023-05-10T00:51:34;67.41;;;55.1;;
67429;SDS011;54298;52.076;5.264;2023-05-10T00:53:10;69.8;;;56.6;;
67429;SDS011;54298;52.076;5.264;2023-05-10T00:56:22;82.1;;;59.8;;
67429;SDS011;54298;52.076;5.264;2023-05-10T00:57:58;78.8;;;59.7;;
67429;SDS011;54298;52.076;5.264;2023-05-10T00:59:35;74.8;;;54.7;;
67429;SDS011;54298;52.076;5.264;2023-05-10T01:01:11;78.8;;;62.0;;
67429;SDS011;54298;52.076;5.264;2023-05-10T01:04:25;75.61;;;56.9;;
67429;SDS011;54298;52.076;5.264;2023-05-10T01:06:01;82.4;;;63.5;;
67429;SDS011;54298;52.076;5.264;2023-05-10T01:07:37;86.1;;;62.7;;
67429;SDS011;54298;52.076;5.264;2023-05-10T01:10:49;91.2;;;62.2;;
67429;SDS011;54298;52.076;5.264;2023-05-10T01:12:25;83.5;;;62.7;;
67429;SDS011;54298;52.076;5.264;2023-05-10T01:14:01;82.8;;;62.5;;
67429;SDS011;54298;52.076;5.264;2023-05-10T01:17:16;81.7;;;61.4;;
67429;SDS011;54298;52.076;5.264;2023-05-10T01:18:53;85.4;;;63.7;;
67429;SDS011;54298;52.076;5.264;2023-05-10T01:20:31;89.5;;;59.7;;
67429;SDS011;54298;52.076;5.264;2023-05-10T01:22:25;82.8;;;59.2;;
67429;SDS011;54298;52.076;5.264;2023-05-10T01:24:35;78.91;;;60.1;;
67429;SDS011;54298;52.076;5.264;2023-05-10T01:28:08;81.7;;;57.8;;
67429;SDS011;54298;52.076;5.264;2023-05-10T01:30:02;82.5;;;59.3;;
67429;SDS011;54298;52.076;5.264;2023-05-10T01:32:03;81.91;;;61.3;;
67429;SDS011;54298;52.076;5.264;2023-05-10T01:33:52;70.5;;;58.5;;
67429;SDS011;54298;52.076;5.264;2023-05-10T01:35:33;84.2;;;59.9;;
67429;SDS011;54298;52.076;5.264;2023-05-10T01:37:19;82.1;;;59.1;;
67429;SDS011;54298;52.076;5.264;2023-05-10T01:39:02;86.7;;;64.5;;
67429;SDS011;54298;52.076;5.264;2023-05-10T01:42:38;83.7;;;65.41;;
67429;SDS011;54298;52.076;5.264;2023-05-10T01:44:24;81.41;;;59.0;;
67429;SDS011;54298;52.076;5.264;2023-05-10T01:47:54;90.5;;;64.1;;
67429;SDS011;54298;52.076;5.264;2023-05-10T01:49:39;82.9;;;61.8;;
67429;SDS011;54298;52.076;5.264;2023-05-10T01:51:19;75.7;;;60.0;;
67429;SDS011;54298;52.076;5.264;2023-05-10T01:54:38;76.8;;;57.3;;
67429;SDS011;54298;52.076;5.264;2023-05-10T01:56:19;95.8;;;61.1;;
67429;SDS011;54298;52.076;5.264;2023-05-10T01:58:01;83.2;;;59.7;;
67429;SDS011;54298;52.076;5.264;2023-05-10T02:01:21;79.8;;;60.3;;
67429;SDS011;54298;52.076;5.264;2023-05-10T02:02:58;81.0;;;59.3;;
67429;SDS011;54298;52.076;5.264;2023-05-10T02:04:39;86.3;;;60.3;;
67429;SDS011;54298;52.076;5.264;2023-05-10T02:06:18;82.4;;;62.7;;
67429;SDS011;54298;52.076;5.264;2023-05-10T02:09:35;89.8;;;60.9;;
67429;SDS011;54298;52.076;5.264;2023-05-10T02:11:14;90.2;;;65.3;;
67429;SDS011;54298;52.076;5.264;2023-05-10T02:12:53;97.8;;;68.61;;
67429;SDS011;54298;52.076;5.264;2023-05-10T02:14:30;94.6;;;69.3;;
67429;SDS011;54298;52.076;5.264;2023-05-10T02:17:49;101.6;;;70.61;;
67429;SDS011;54298;52.076;5.264;2023-05-10T02:19:29;101.0;;;72.5;;
67429;SDS011;54298;52.076;5.264;2023-05-10T02:21:08;97.6;;;68.61;;
67429;SDS011;54298;52.076;5.264;2023-05-10T02:22:45;97.6;;;68.61;;
67429;SDS011;54298;52.076;5.264;2023-05-10T02:26:02;114.6;;;77.0;;
67429;SDS011;54298;52.076;5.264;2023-05-10T02:27:39;117.9;;;77.11;;
67429;SDS011;54298;52.076;5.264;2023-05-10T02:29:18;119.8;;;77.3;;
67429;SDS011;54298;52.076;5.264;2023-05-10T02:32:32;118.1;;;77.2;;
67429;SDS011;54298;52.076;5.264;2023-05-10T02:34:10;142.4;;;86.1;;
67429;SDS011;54298;52.076;5.264;2023-05-10T02:35:49;126.2;;;78.91;;
67429;SDS011;54298;52.076;5.264;2023-05-10T02:37:26;120.5;;;82.4;;
67429;SDS011;54298;52.076;5.264;2023-05-10T02:40:42;123.3;;;80.3;;
67429;SDS011;54298;52.076;5.264;2023-05-10T02:42:22;126.3;;;83.5;;
67429;SDS011;54298;52.076;5.264;2023-05-10T02:44:04;117.1;;;81.8;;
67429;SDS011;54298;52.076;5.264;2023-05-10T02:45:43;154.21;;;88.3;;
67429;SDS011;54298;52.076;5.264;2023-05-10T02:48:59;126.3;;;78.2;;
67429;SDS011;54298;52.076;5.264;2023-05-10T02:50:36;125.7;;;81.91;;
67429;SDS011;54298;52.076;5.264;2023-05-10T02:52:19;152.0;;;81.7;;
67429;SDS011;54298;52.076;5.264;2023-05-10T02:55:57;129.7;;;80.3;;
67429;SDS011;54298;52.076;5.264;2023-05-10T02:57:38;129.7;;;80.3;;
67429;SDS011;54298;52.076;5.264;2023-05-10T02:59:17;133.2;;;80.7;;
67429;SDS011;54298;52.076;5.264;2023-05-10T03:00:53;155.4;;;90.2;;
67429;SDS011;54298;52.076;5.264;2023-05-10T03:02:29;143.31;;;87.8;;
67429;SDS011;54298;52.076;5.264;2023-05-10T03:05:42;140.6;;;85.8;;
67429;SDS011;54298;52.076;5.264;2023-05-10T03:07:19;125.7;;;80.7;;
67429;SDS011;54298;52.076;5.264;2023-05-10T03:08:55;121.2;;;81.3;;
67429;SDS011;54298;52.076;5.264;2023-05-10T03:12:13;121.4;;;83.7;;
67429;SDS011;54298;52.076;5.264;2023-05-10T03:14:08;120.6;;;81.41;;
67429;SDS011;54298;52.076;5.264;2023-05-10T03:15:56;116.2;;;74.0;;
67429;SDS011;54298;52.076;5.264;2023-05-10T03:17:39;118.7;;;79.0;;
67429;SDS011;54298;52.076;5.264;2023-05-10T03:19:24;120.0;;;77.91;;
67429;SDS011;54298;52.076;5.264;2023-05-10T03:22:47;109.7;;;74.41;;
67429;SDS011;54298;52.076;5.264;2023-05-10T03:24:27;105.8;;;74.41;;
67429;SDS011;54298;52.076;5.264;2023-05-10T03:26:04;110.1;;;80.11;;
67429;SDS011;54298;52.076;5.264;2023-05-10T03:27:43;108.6;;;72.11;;
67429;SDS011;54298;52.076;5.264;2023-05-10T03:30:59;104.7;;;74.5;;
67429;SDS011;54298;52.076;5.264;2023-05-10T03:32:35;105.1;;;70.41;;
67429;SDS011;54298;52.076;5.264;2023-05-10T03:34:11;107.7;;;78.11;;
67429;SDS011;54298;52.076;5.264;2023-05-10T03:37:23;119.8;;;76.91;;
67429;SDS011;54298;52.076;5.264;2023-05-10T03:38:59;113.9;;;71.2;;
67429;SDS011;54298;52.076;5.264;2023-05-10T03:40:35;103.9;;;75.11;;
67429;SDS011;54298;52.076;5.264;2023-05-10T03:42:11;105.8;;;69.11;;
67429;SDS011;54298;52.076;5.264;2023-05-10T03:45:24;105.6;;;71.41;;
67429;SDS011;54298;52.076;5.264;2023-05-10T03:47:00;111.7;;;72.5;;
67429;SDS011;54298;52.076;5.264;2023-05-10T03:48:36;109.1;;;71.41;;
67429;SDS011;54298;52.076;5.264;2023-05-10T03:51:49;118.4;;;71.7;;
67429;SDS011;54298;52.076;5.264;2023-05-10T03:53:25;107.4;;;69.91;;
67429;SDS011;54298;52.076;5.264;2023-05-10T03:55:01;107.3;;;68.91;;
67429;SDS011;54298;52.076;5.264;2023-05-10T03:58:14;106.5;;;74.2;;
67429;SDS011;54298;52.076;5.264;2023-05-10T03:59:51;130.7;;;71.41;;
67429;SDS011;54298;52.076;5.264;2023-05-10T04:01:27;118.7;;;70.7;;
67429;SDS011;54298;52.076;5.264;2023-05-10T04:04:39;122.3;;;75.2;;
67429;SDS011;54298;52.076;5.264;2023-05-10T04:06:15;117.2;;;71.8;;
67429;SDS011;54298;52.076;5.264;2023-05-10T04:13:13;119.8;;;78.0;;
67429;SDS011;54298;52.076;5.264;2023-05-10T04:14:49;118.2;;;78.0;;
67429;SDS011;54298;52.076;5.264;2023-05-10T04:16:25;125.9;;;75.0;;
67429;SDS011;54298;52.076;5.264;2023-05-10T04:18:01;126.8;;;76.8;;
67429;SDS011;54298;52.076;5.264;2023-05-10T04:21:14;126.5;;;78.2;;
67429;SDS011;54298;52.076;5.264;2023-05-10T04:22:50;128.7;;;74.3;;
67429;SDS011;54298;52.076;5.264;2023-05-10T04:24:26;120.9;;;76.41;;
67429;SDS011;54298;52.076;5.264;2023-05-10T04:27:38;137.5;;;76.11;;
67429;SDS011;54298;52.076;5.264;2023-05-10T04:29:14;130.1;;;71.3;;
67429;SDS011;54298;52.076;5.264;2023-05-10T04:30:50;129.7;;;73.0;;
67429;SDS011;54298;52.076;5.264;2023-05-10T04:32:27;136.31;;;76.7;;
67429;SDS011;54298;52.076;5.264;2023-05-10T04:35:39;141.31;;;78.7;;
67429;SDS011;54298;52.076;5.264;2023-05-10T04:37:15;148.81;;;80.61;;
67429;SDS011;54298;52.076;5.264;2023-05-10T04:38:51;162.81;;;82.0;;
67429;SDS011;54298;52.076;5.264;2023-05-10T04:42:04;127.9;;;78.41;;
67429;SDS011;54298;52.076;5.264;2023-05-10T04:43:39;137.0;;;77.8;;
67429;SDS011;54298;52.076;5.264;2023-05-10T04:45:16;134.1;;;80.2;;
67429;SDS011;54298;52.076;5.264;2023-05-10T04:48:28;138.4;;;82.1;;
67429;SDS011;54298;52.076;5.264;2023-05-10T04:50:04;143.1;;;82.7;;
67429;SDS011;54298;52.076;5.264;2023-05-10T04:51:42;145.1;;;85.1;;
67429;SDS011;54298;52.076;5.264;2023-05-10T04:53:18;135.31;;;82.1;;
67429;SDS011;54298;52.076;5.264;2023-05-10T04:56:30;136.9;;;86.5;;
67429;SDS011;54298;52.076;5.264;2023-05-10T04:58:07;132.2;;;85.4;;
67429;SDS011;54298;52.076;5.264;2023-05-10T04:59:43;143.9;;;87.7;;
67429;SDS011;54298;52.076;5.264;2023-05-10T05:02:55;149.4;;;85.3;;
67429;SDS011;54298;52.076;5.264;2023-05-10T05:04:31;160.71;;;87.9;;
67429;SDS011;54298;52.076;5.264;2023-05-10T05:06:07;140.81;;;90.5;;
67429;SDS011;54298;52.076;5.264;2023-05-10T05:09:20;137.31;;;89.3;;
67429;SDS011;54298;52.076;5.264;2023-05-10T05:10:56;133.31;;;88.3;;
67429;SDS011;54298;52.076;5.264;2023-05-10T05:12:32;127.7;;;83.8;;
67429;SDS011;54298;52.076;5.264;2023-05-10T05:15:44;127.6;;;84.0;;
67429;SDS011;54298;52.076;5.264;2023-05-10T05:17:21;136.5;;;85.0;;
67429;SDS011;54298;52.076;5.264;2023-05-10T05:18:57;137.21;;;92.2;;
67429;SDS011;54298;52.076;5.264;2023-05-10T05:20:37;145.4;;;103.0;;
67429;SDS011;54298;52.076;5.264;2023-05-10T05:23:53;129.4;;;83.2;;
67429;SDS011;54298;52.076;5.264;2023-05-10T05:25:31;108.8;;;72.8;;
67429;SDS011;54298;52.076;5.264;2023-05-10T05:27:07;95.6;;;64.1;;
67429;SDS011;54298;52.076;5.264;2023-05-10T05:30:18;94.3;;;69.61;;
67429;SDS011;54298;52.076;5.264;2023-05-10T05:31:54;97.8;;;69.2;;
67429;SDS011;54298;52.076;5.264;2023-05-10T05:33:32;94.5;;;68.2;;
67429;SDS011;54298;52.076;5.264;2023-05-10T05:35:09;91.7;;;68.0;;
67429;SDS011;54298;52.076;5.264;2023-05-10T05:38:22;87.9;;;66.91;;
67429;SDS011;54298;52.076;5.264;2023-05-10T05:39:59;86.2;;;62.4;;
67429;SDS011;54298;52.076;5.264;2023-05-10T05:41:37;93.7;;;69.41;;
67429;SDS011;54298;52.076;5.264;2023-05-10T05:44:53;90.6;;;66.1;;
67429;SDS011;54298;52.076;5.264;2023-05-10T05:46:30;97.7;;;68.0;;
67429;SDS011;54298;52.076;5.264;2023-05-10T05:48:08;103.2;;;73.3;;
67429;SDS011;54298;52.076;5.264;2023-05-10T05:51:24;101.2;;;74.41;;
67429;SDS011;54298;52.076;5.264;2023-05-10T05:53:01;106.0;;;71.2;;
67429;SDS011;54298;52.076;5.264;2023-05-10T05:54:37;106.0;;;72.61;;
67429;SDS011;54298;52.076;5.264;2023-05-10T05:56:14;78.2;;;59.1;;
67429;SDS011;54298;52.076;5.264;2023-05-10T05:59:30;83.1;;;59.8;;
67429;SDS011;54298;52.076;5.264;2023-05-10T06:01:07;78.8;;;58.1;;
67429;SDS011;54298;52.076;5.264;2023-05-10T06:02:45;73.3;;;57.2;;
67429;SDS011;54298;52.076;5.264;2023-05-10T06:06:01;81.11;;;59.9;;
67429;SDS011;54298;52.076;5.264;2023-05-10T06:07:38;79.3;;;59.1;;
67429;SDS011;54298;52.076;5.264;2023-05-10T06:09:16;81.7;;;61.0;;
67429;SDS011;54298;52.076;5.264;2023-05-10T06:10:53;88.4;;;63.2;;
67429;SDS011;54298;52.076;5.264;2023-05-10T06:14:08;91.0;;;64.7;;
67429;SDS011;54298;52.076;5.264;2023-05-10T06:15:45;94.0;;;67.41;;
67429;SDS011;54298;52.076;5.264;2023-05-10T06:17:23;95.1;;;66.5;;
67429;SDS011;54298;52.076;5.264;2023-05-10T06:20:38;89.0;;;64.1;;
67429;SDS011;54298;52.076;5.264;2023-05-10T06:22:17;87.9;;;62.8;;
67429;SDS011;54298;52.076;5.264;2023-05-10T06:23:55;82.0;;;61.2;;
67429;SDS011;54298;52.076;5.264;2023-05-10T06:25:33;81.7;;;58.6;;
67429;SDS011;54298;52.076;5.264;2023-05-10T06:28:48;78.11;;;59.3;;
67429;SDS011;54298;52.076;5.264;2023-05-10T06:30:26;84.5;;;67.5;;
67429;SDS011;54298;52.076;5.264;2023-05-10T06:32:04;74.61;;;52.9;;
67429;SDS011;54298;52.076;5.264;2023-05-10T06:35:19;71.7;;;52.8;;
67429;SDS011;54298;52.076;5.264;2023-05-10T06:36:57;67.8;;;51.2;;
67429;SDS011;54298;52.076;5.264;2023-05-10T06:38:35;67.6;;;49.6;;
67429;SDS011;54298;52.076;5.264;2023-05-10T06:40:13;57.1;;;42.0;;
67429;SDS011;54298;52.076;5.264;2023-05-10T06:43:28;47.9;;;38.31;;
67429;SDS011;54298;52.076;5.264;2023-05-10T06:45:07;43.6;;;33.4;;
67429;SDS011;54298;52.076;5.264;2023-05-10T06:46:44;41.6;;;32.6;;
67429;SDS011;54298;52.076;5.264;2023-05-10T06:48:21;37.21;;;30.3;;
67429;SDS011;54298;52.076;5.264;2023-05-10T06:51:35;39.21;;;30.2;;
67429;SDS011;54298;52.076;5.264;2023-05-10T06:53:11;34.0;;;27.0;;
67429;SDS011;54298;52.076;5.264;2023-05-10T06:54:49;33.0;;;26.7;;
67429;SDS011;54298;52.076;5.264;2023-05-10T06:58:03;36.6;;;27.3;;
67429;SDS011;54298;52.076;5.264;2023-05-10T06:59:40;33.8;;;24.8;;
67429;SDS011;54298;52.076;5.264;2023-05-10T07:01:18;43.5;;;32.3;;
67429;SDS011;54298;52.076;5.264;2023-05-10T07:04:32;29.7;;;23.5;;
67429;SDS011;54298;52.076;5.264;2023-05-10T07:06:08;28.3;;;20.9;;
67429;SDS011;54298;52.076;5.264;2023-05-10T07:07:45;31.2;;;23.6;;
67429;SDS011;54298;52.076;5.264;2023-05-10T07:09:23;42.4;;;32.9;;
67429;SDS011;54298;52.076;5.264;2023-05-10T07:12:40;32.1;;;25.8;;
67429;SDS011;54298;52.076;5.264;2023-05-10T07:14:18;25.8;;;21.5;;
67429;SDS011;54298;52.076;5.264;2023-05-10T07:15:56;23.7;;;19.61;;
67429;SDS011;54298;52.076;5.264;2023-05-10T07:19:11;26.2;;;19.61;;
67429;SDS011;54298;52.076;5.264;2023-05-10T07:20:48;23.9;;;18.91;;
67429;SDS011;54298;52.076;5.264;2023-05-10T07:22:26;22.6;;;17.61;;
67429;SDS011;54298;52.076;5.264;2023-05-10T07:24:04;23.4;;;20.0;;
67429;SDS011;54298;52.076;5.264;2023-05-10T07:27:19;23.7;;;17.8;;
67429;SDS011;54298;52.076;5.264;2023-05-10T07:28:56;23.3;;;17.61;;
67429;SDS011;54298;52.076;5.264;2023-05-10T07:30:33;20.0;;;17.61;;
67429;SDS011;54298;52.076;5.264;2023-05-10T07:33:47;22.2;;;17.2;;
67429;SDS011;54298;52.076;5.264;2023-05-10T07:35:25;19.11;;;16.3;;
67429;SDS011;54298;52.076;5.264;2023-05-10T07:37:02;20.41;;;15.5;;
67429;SDS011;54298;52.076;5.264;2023-05-10T07:38:40;22.3;;;16.8;;
67429;SDS011;54298;52.076;5.264;2023-05-10T07:41:55;22.9;;;15.0;;
67429;SDS011;54298;52.076;5.264;2023-05-10T07:43:33;21.3;;;16.5;;
67429;SDS011;54298;52.076;5.264;2023-05-10T07:48:26;21.3;;;16.8;;
67429;SDS011;54298;52.076;5.264;2023-05-10T07:50:03;22.8;;;18.0;;
67429;SDS011;54298;52.076;5.264;2023-05-10T07:51:40;19.61;;;15.1;;
67429;SDS011;54298;52.076;5.264;2023-05-10T07:53:18;19.7;;;15.4;;
67429;SDS011;54298;52.076;5.264;2023-05-10T07:56:32;17.5;;;14.6;;
67429;SDS011;54298;52.076;5.264;2023-05-10T07:58:09;19.91;;;16.7;;
67429;SDS011;54298;52.076;5.264;2023-05-10T07:59:45;20.8;;;16.7;;
67429;SDS011;54298;52.076;5.264;2023-05-10T08:03:02;20.11;;;15.9;;
67429;SDS011;54298;52.076;5.264;2023-05-10T08:04:39;21.4;;;16.7;;
67429;SDS011;54298;52.076;5.264;2023-05-10T08:06:17;19.41;;;16.7;;
67429;SDS011;54298;52.076;5.264;2023-05-10T08:07:55;21.6;;;17.0;;
67429;SDS011;54298;52.076;5.264;2023-05-10T08:11:10;34.81;;;29.0;;
67429;SDS011;54298;52.076;5.264;2023-05-10T08:12:48;32.5;;;24.7;;
67429;SDS011;54298;52.076;5.264;2023-05-10T08:14:25;22.9;;;18.5;;
67429;SDS011;54298;52.076;5.264;2023-05-10T08:17:42;19.0;;;16.61;;
67429;SDS011;54298;52.076;5.264;2023-05-10T08:19:20;19.0;;;16.61;;
67429;SDS011;54298;52.076;5.264;2023-05-10T08:20:58;19.8;;;16.11;;
67429;SDS011;54298;52.076;5.264;2023-05-10T08:22:35;21.9;;;17.61;;
67429;SDS011;54298;52.076;5.264;2023-05-10T08:25:50;19.8;;;16.61;;
67429;SDS011;54298;52.076;5.264;2023-05-10T08:27:26;20.0;;;15.6;;
67429;SDS011;54298;52.076;5.264;2023-05-10T08:29:04;21.0;;;17.0;;
67429;SDS011;54298;52.076;5.264;2023-05-10T08:32:18;20.9;;;16.61;;
67429;SDS011;54298;52.076;5.264;2023-05-10T08:33:55;21.9;;;17.8;;
67429;SDS011;54298;52.076;5.264;2023-05-10T08:35:33;24.0;;;17.3;;
67429;SDS011;54298;52.076;5.264;2023-05-10T08:37:11;22.2;;;17.91;;
67429;SDS011;54298;52.076;5.264;2023-05-10T08:40:28;25.9;;;18.2;;
67429;SDS011;54298;52.076;5.264;2023-05-10T08:42:06;20.6;;;15.9;;
67429;SDS011;54298;52.076;5.264;2023-05-10T08:43:46;22.5;;;18.41;;
67429;SDS011;54298;52.076;5.264;2023-05-10T08:47:08;18.91;;;15.8;;
67429;SDS011;54298;52.076;5.264;2023-05-10T08:48:48;22.5;;;16.9;;
67429;SDS011;54298;52.076;5.264;2023-05-10T08:50:26;23.8;;;16.7;;
67429;SDS011;54298;52.076;5.264;2023-05-10T08:52:06;23.2;;;18.61;;
67429;SDS011;54298;52.076;5.264;2023-05-10T08:55:22;21.3;;;15.8;;
67429;SDS011;54298;52.076;5.264;2023-05-10T08:57:00;21.0;;;17.7;;
67429;SDS011;54298;52.076;5.264;2023-05-10T08:58:38;30.7;;;25.8;;
67429;SDS011;54298;52.076;5.264;2023-05-10T09:00:15;28.2;;;23.7;;
67429;SDS011;54298;52.076;5.264;2023-05-10T09:03:34;27.8;;;22.2;;
67429;SDS011;54298;52.076;5.264;2023-05-10T09:05:12;21.1;;;17.3;;
67429;SDS011;54298;52.076;5.264;2023-05-10T09:06:48;22.4;;;16.7;;
67429;SDS011;54298;52.076;5.264;2023-05-10T09:10:04;24.6;;;19.3;;
67429;SDS011;54298;52.076;5.264;2023-05-10T09:11:44;20.41;;;15.4;;
67429;SDS011;54298;52.076;5.264;2023-05-10T09:13:21;24.5;;;18.2;;
67429;SDS011;54298;52.076;5.264;2023-05-10T09:15:00;23.0;;;15.8;;
67429;SDS011;54298;52.076;5.264;2023-05-10T09:18:18;20.6;;;17.11;;
67429;SDS011;54298;52.076;5.264;2023-05-10T09:19:57;23.7;;;18.2;;
67429;SDS011;54298;52.076;5.264;2023-05-10T09:21:36;23.4;;;17.91;;
67429;SDS011;54298;52.076;5.264;2023-05-10T09:23:13;17.11;;;15.1;;
67429;SDS011;54298;52.076;5.264;2023-05-10T09:26:45;17.8;;;15.6;;
67429;SDS011;54298;52.076;5.264;2023-05-10T09:28:24;19.3;;;16.2;;
67429;SDS011;54298;52.076;5.264;2023-05-10T09:30:02;19.5;;;15.3;;
67429;SDS011;54298;52.076;5.264;2023-05-10T09:31:44;18.91;;;14.7;;
67429;SDS011;54298;52.076;5.264;2023-05-10T09:35:05;19.41;;;16.2;;
67429;SDS011;54298;52.076;5.264;2023-05-10T09:36:52;19.11;;;16.3;;
67429;SDS011;54298;52.076;5.264;2023-05-10T09:38:33;20.41;;;16.61;;
67429;SDS011;54298;52.076;5.264;2023-05-10T09:40:23;17.5;;;14.9;;
67429;SDS011;54298;52.076;5.264;2023-05-10T09:42:03;49.3;;;16.5;;
67429;SDS011;54298;52.076;5.264;2023-05-10T09:45:18;18.41;;;15.5;;
67429;SDS011;54298;52.076;5.264;2023-05-10T09:46:57;20.0;;;15.5;;
67429;SDS011;54298;52.076;5.264;2023-05-10T09:48:38;17.8;;;13.9;;
67429;SDS011;54298;52.076;5.264;2023-05-10T09:51:59;18.91;;;15.7;;
67429;SDS011;54298;52.076;5.264;2023-05-10T09:53:38;16.8;;;15.0;;
67429;SDS011;54298;52.076;5.264;2023-05-10T09:55:16;17.41;;;14.2;;
67429;SDS011;54298;52.076;5.264;2023-05-10T09:56:55;16.9;;;14.3;;
67429;SDS011;54298;52.076;5.264;2023-05-10T10:00:16;20.2;;;15.7;;
67429;SDS011;54298;52.076;5.264;2023-05-10T10:01:56;25.7;;;21.9;;
67429;SDS011;54298;52.076;5.264;2023-05-10T10:03:40;18.61;;;15.4;;
67429;SDS011;54298;52.076;5.264;2023-05-10T10:05:19;23.1;;;18.61;;
67429;SDS011;54298;52.076;5.264;2023-05-10T10:08:36;20.41;;;16.9;;
67429;SDS011;54298;52.076;5.264;2023-05-10T10:10:15;17.5;;;12.4;;
67429;SDS011;54298;52.076;5.264;2023-05-10T10:11:53;18.91;;;15.1;;
67429;SDS011;54298;52.076;5.264;2023-05-10T10:13:31;14.1;;;11.7;;
67429;SDS011;54298;52.076;5.264;2023-05-10T10:16:47;17.8;;;13.2;;
67429;SDS011;54298;52.076;5.264;2023-05-10T10:18:26;14.2;;;12.3;;
67429;SDS011;54298;52.076;5.264;2023-05-10T10:20:05;15.4;;;10.8;;
67429;SDS011;54298;52.076;5.264;2023-05-10T10:23:20;18.61;;;12.7;;
67429;SDS011;54298;52.076;5.264;2023-05-10T10:24:58;18.3;;;13.7;;
67429;SDS011;54298;52.076;5.264;2023-05-10T10:26:36;14.3;;;10.7;;
67429;SDS011;54298;52.076;5.264;2023-05-10T10:28:19;13.8;;;11.9;;
67429;SDS011;54298;52.076;5.264;2023-05-10T10:31:55;14.7;;;11.1;;
67429;SDS011;54298;52.076;5.264;2023-05-10T10:33:47;19.0;;;13.5;;
67429;SDS011;54298;52.076;5.264;2023-05-10T10:35:36;63.3;;;13.2;;
67429;SDS011;54298;52.076;5.264;2023-05-10T10:37:14;14.5;;;10.4;;
67429;SDS011;54298;52.076;5.264;2023-05-10T10:38:55;11.6;;;9.31;;
67429;SDS011;54298;52.076;5.264;2023-05-10T10:40:33;12.2;;;8.31;;
67429;SDS011;54298;52.076;5.264;2023-05-10T10:43:48;13.3;;;9.1;;
67429;SDS011;54298;52.076;5.264;2023-05-10T10:45:26;9.81;;;7.4;;
67429;SDS011;54298;52.076;5.264;2023-05-10T10:47:04;12.4;;;8.2;;
67429;SDS011;54298;52.076;5.264;2023-05-10T10:50:25;11.7;;;8.4;;
67429;SDS011;54298;52.076;5.264;2023-05-10T10:52:20;9.9;;;7.7;;
67429;SDS011;54298;52.076;5.264;2023-05-10T10:54:08;9.9;;;7.7;;
67429;SDS011;54298;52.076;5.264;2023-05-10T10:55:46;13.1;;;8.1;;
67429;SDS011;54298;52.076;5.264;2023-05-10T10:57:26;33.8;;;23.7;;
67429;SDS011;54298;52.076;5.264;2023-05-10T11:00:39;50.2;;;26.8;;
67429;SDS011;54298;52.076;5.264;2023-05-10T11:02:48;18.61;;;13.8;;
67429;SDS011;54298;52.076;5.264;2023-05-10T11:04:26;18.8;;;13.7;;
67429;SDS011;54298;52.076;5.264;2023-05-10T11:06:02;10.3;;;8.0;;
67429;SDS011;54298;52.076;5.264;2023-05-10T11:09:26;14.1;;;8.81;;
67429;SDS011;54298;52.076;5.264;2023-05-10T11:11:03;14.5;;;9.4;;
67429;SDS011;54298;52.076;5.264;2023-05-10T11:12:50;10.8;;;8.9;;
67429;SDS011;54298;52.076;5.264;2023-05-10T11:14:27;11.1;;;8.71;;
67429;SDS011;54298;52.076;5.264;2023-05-10T11:17:50;15.6;;;11.4;;
67429;SDS011;54298;52.076;5.264;2023-05-10T11:19:27;11.2;;;9.1;;
67429;SDS011;54298;52.076;5.264;2023-05-10T11:21:03;12.2;;;8.81;;
67429;SDS011;54298;52.076;5.264;2023-05-10T11:22:55;10.4;;;7.9;;
67429;SDS011;54298;52.076;5.264;2023-05-10T11:24:31;10.21;;;7.2;;
67429;SDS011;54298;52.076;5.264;2023-05-10T11:27:44;11.2;;;7.5;;
67429;SDS011;54298;52.076;5.264;2023-05-10T11:29:23;48.6;;;9.4;;
67429;SDS011;54298;52.076;5.264;2023-05-10T11:30:59;13.1;;;10.0;;
67429;SDS011;54298;52.076;5.264;2023-05-10T11:34:22;8.6;;;6.8;;
67429;SDS011;54298;52.076;5.264;2023-05-10T11:36:00;12.4;;;6.7;;
67429;SDS011;54298;52.076;5.264;2023-05-10T11:37:36;18.11;;;7.5;;
67429;SDS011;54298;52.076;5.264;2023-05-10T11:39:12;8.5;;;6.6;;
67429;SDS011;54298;52.076;5.264;2023-05-10T11:42:27;9.9;;;6.4;;
67429;SDS011;54298;52.076;5.264;2023-05-10T11:44:04;10.5;;;7.1;;
67429;SDS011;54298;52.076;5.264;2023-05-10T11:45:41;7.9;;;6.2;;
67429;SDS011;54298;52.076;5.264;2023-05-10T11:48:55;10.3;;;7.0;;
67429;SDS011;54298;52.076;5.264;2023-05-10T11:50:34;11.9;;;7.4;;
67429;SDS011;54298;52.076;5.264;2023-05-10T11:52:10;10.3;;;6.3;;
67429;SDS011;54298;52.076;5.264;2023-05-10T11:53:46;10.3;;;6.6;;
67429;SDS011;54298;52.076;5.264;2023-05-10T11:57:01;7.9;;;5.7;;
67429;SDS011;54298;52.076;5.264;2023-05-10T11:58:37;10.5;;;7.3;;
67429;SDS011;54298;52.076;5.264;2023-05-10T12:00:15;10.8;;;7.8;;
67429;SDS011;54298;52.076;5.264;2023-05-10T12:03:28;10.5;;;7.5;;
67429;SDS011;54298;52.076;5.264;2023-05-10T12:05:05;10.7;;;7.5;;
67429;SDS011;54298;52.076;5.264;2023-05-10T12:06:42;9.6;;;5.9;;
67429;SDS011;54298;52.076;5.264;2023-05-10T12:10:05;8.5;;;5.4;;
67429;SDS011;54298;52.076;5.264;2023-05-10T12:11:43;8.2;;;5.2;;
67429;SDS011;54298;52.076;5.264;2023-05-10T12:13:19;11.2;;;7.8;;
67429;SDS011;54298;52.076;5.264;2023-05-10T12:14:56;9.31;;;6.0;;
67429;SDS011;54298;52.076;5.264;2023-05-10T12:18:09;9.21;;;6.4;;
67429;SDS011;54298;52.076;5.264;2023-05-10T12:19:46;14.0;;;10.0;;
67429;SDS011;54298;52.076;5.264;2023-05-10T12:21:22;9.31;;;6.4;;
67429;SDS011;54298;52.076;5.264;2023-05-10T12:24:34;10.8;;;7.0;;
67429;SDS011;54298;52.076;5.264;2023-05-10T12:26:11;8.6;;;7.1;;
67429;SDS011;54298;52.076;5.264;2023-05-10T12:27:50;10.1;;;6.9;;
67429;SDS011;54298;52.076;5.264;2023-05-10T12:29:27;9.71;;;5.2;;
67429;SDS011;54298;52.076;5.264;2023-05-10T12:32:43;9.81;;;6.8;;
67429;SDS011;54298;52.076;5.264;2023-05-10T12:34:23;23.4;;;9.21;;
67429;SDS011;54298;52.076;5.264;2023-05-10T12:36:00;11.4;;;9.0;;
67429;SDS011;54298;52.076;5.264;2023-05-10T12:39:14;11.7;;;9.5;;
67429;SDS011;54298;52.076;5.264;2023-05-10T12:40:50;12.1;;;10.4;;
67429;SDS011;54298;52.076;5.264;2023-05-10T12:42:26;13.7;;;10.5;;
67429;SDS011;54298;52.076;5.264;2023-05-10T12:44:02;49.5;;;12.1;;